createdAt,value
2023-05-03T00:00:21.251Z,0.78
2023-05-03T00:01:25.324Z,0.89
2023-05-03T00:02:37.011Z,0.86
2023-05-03T00:03:39.980Z,0.96
2023-05-03T00:04:43.008Z,0.93
2023-05-03T00:05:46.086Z,0.75
2023-05-03T00:06:49.750Z,0.69
2023-05-03T00:07:54.144Z,0.83
2023-05-03T00:08:56.811Z,0.90
2023-05-03T00:10:03.198Z,0.98
2023-05-03T00:11:06.353Z,0.94
2023-05-03T00:12:09.343Z,0.71
2023-05-03T00:13:12.520Z,0.68
2023-05-03T00:14:15.490Z,0.90
2023-05-03T00:15:19.076Z,0.80
2023-05-03T00:16:21.976Z,0.80
2023-05-03T00:17:25.054Z,0.69
2023-05-03T00:18:28.209Z,0.70
2023-05-03T00:19:31.988Z,0.85
2023-05-03T00:20:34.784Z,0.99
2023-05-03T00:21:37.455Z,0.95
2023-05-03T00:22:40.437Z,0.90
2023-05-03T00:23:43.407Z,0.86
2023-05-03T00:24:46.181Z,0.75
2023-05-03T00:25:48.949Z,0.85
2023-05-03T00:26:51.725Z,0.80
2023-05-03T00:27:54.596Z,0.82
2023-05-03T00:28:57.678Z,0.83
2023-05-03T00:30:00.818Z,0.85
2023-05-03T00:31:03.976Z,0.84
2023-05-03T00:32:06.721Z,0.71
2023-05-03T00:33:09.504Z,0.92
2023-05-03T00:34:12.260Z,0.88
2023-05-03T00:35:14.941Z,0.95
2023-05-03T00:36:17.801Z,0.85
2023-05-03T00:37:20.477Z,0.94
2023-05-03T00:38:23.249Z,0.70
2023-05-03T00:39:26.128Z,0.85
2023-05-03T00:40:28.896Z,1.00
2023-05-03T00:41:31.668Z,0.85
2023-05-03T00:42:34.749Z,0.82
2023-05-03T00:43:37.518Z,0.75
2023-05-03T00:44:40.601Z,0.75
2023-05-03T00:45:43.580Z,0.76
2023-05-03T00:46:46.759Z,0.82
2023-05-03T00:47:49.642Z,0.84
2023-05-03T00:48:52.505Z,0.81
2023-05-03T00:49:55.587Z,0.86
2023-05-03T00:50:58.148Z,0.90
2023-05-03T00:52:00.830Z,0.88
2023-05-03T00:53:03.494Z,0.90
2023-05-03T00:54:06.162Z,0.88
2023-05-03T00:55:08.997Z,0.85
2023-05-03T00:56:11.721Z,1.15
2023-05-03T00:57:14.276Z,1.18
2023-05-03T00:58:16.941Z,1.18
2023-05-03T00:59:19.613Z,0.98
2023-05-03T01:00:22.504Z,0.89
2023-05-03T01:01:25.216Z,0.97
2023-05-03T01:02:27.993Z,1.10
2023-05-03T01:03:31.022Z,1.16
2023-05-03T01:04:33.990Z,1.03
2023-05-03T01:05:36.759Z,1.05
2023-05-03T01:06:39.590Z,0.92
2023-05-03T01:07:42.309Z,1.25
2023-05-03T01:08:44.969Z,1.14
2023-05-03T01:09:47.756Z,0.85
2023-05-03T01:10:50.418Z,1.15
2023-05-03T01:11:52.982Z,1.08
2023-05-03T01:12:55.655Z,0.86
2023-05-03T01:13:58.425Z,0.97
2023-05-03T01:15:01.188Z,1.04
2023-05-03T01:16:03.924Z,0.97
2023-05-03T01:17:06.634Z,1.13
2023-05-03T01:18:09.650Z,1.48
2023-05-03T01:19:12.590Z,2.11
2023-05-03T01:20:15.462Z,1.51
2023-05-03T01:21:18.594Z,1.84
2023-05-03T01:22:21.526Z,2.02
2023-05-03T01:23:24.644Z,1.70
2023-05-03T01:24:27.680Z,1.35
2023-05-03T01:25:30.555Z,1.40
2023-05-03T01:26:33.850Z,1.52
2023-05-03T01:27:36.931Z,1.51
2023-05-03T01:28:39.994Z,1.33
2023-05-03T01:29:42.977Z,1.88
2023-05-03T01:30:45.955Z,2.52
2023-05-03T01:31:49.074Z,1.97
2023-05-03T01:32:52.221Z,1.69
2023-05-03T01:33:55.188Z,1.48
2023-05-03T01:34:59.192Z,1.61
2023-05-03T01:36:02.065Z,1.65
2023-05-03T01:37:05.262Z,1.45
2023-05-03T01:38:08.025Z,2.20
2023-05-03T01:39:10.688Z,1.22
2023-05-03T01:40:13.365Z,1.76
2023-05-03T01:41:18.492Z,2.14
2023-05-03T01:42:21.367Z,1.61
2023-05-03T01:43:24.550Z,1.69
2023-05-03T01:44:27.110Z,2.25
2023-05-03T01:45:29.958Z,1.75
2023-05-03T01:46:32.584Z,1.53
2023-05-03T01:47:36.028Z,2.05
2023-05-03T01:48:39.118Z,3.17
2023-05-03T01:49:42.217Z,3.78
2023-05-03T01:50:45.085Z,2.15
2023-05-03T01:51:48.053Z,2.32
2023-05-03T01:52:51.134Z,2.41
2023-05-03T01:53:54.207Z,3.05
2023-05-03T01:54:57.098Z,2.33
2023-05-03T01:56:00.066Z,2.69
2023-05-03T01:57:02.983Z,1.86
2023-05-03T01:58:06.264Z,1.77
2023-05-03T01:59:09.317Z,2.23
2023-05-03T02:00:12.174Z,2.53
2023-05-03T02:01:15.183Z,1.58
2023-05-03T02:02:18.157Z,2.13
2023-05-03T02:03:21.426Z,2.58
2023-05-03T02:04:24.286Z,1.90
2023-05-03T02:05:27.164Z,3.18
2023-05-03T02:06:30.072Z,1.96
2023-05-03T02:07:33.016Z,2.49
2023-05-03T02:08:36.004Z,2.19
2023-05-03T02:09:39.275Z,2.65
2023-05-03T02:10:42.257Z,2.50
2023-05-03T02:11:45.129Z,1.45
2023-05-03T02:12:48.007Z,1.58
2023-05-03T02:13:51.306Z,1.48
2023-05-03T02:14:54.386Z,1.28
2023-05-03T02:15:57.139Z,1.56
2023-05-03T02:17:00.075Z,1.78
2023-05-03T02:18:02.963Z,1.71
2023-05-03T02:19:06.713Z,2.01
2023-05-03T02:20:09.993Z,1.30
2023-05-03T02:21:12.747Z,1.61
2023-05-03T02:22:15.831Z,2.32
2023-05-03T02:23:18.809Z,1.94
2023-05-03T02:24:21.672Z,2.02
2023-05-03T02:25:26.930Z,1.28
2023-05-03T02:26:28.963Z,1.55
2023-05-03T02:27:32.036Z,1.54
2023-05-03T02:28:35.014Z,1.63
2023-05-03T02:29:38.112Z,1.38
2023-05-03T02:30:41.007Z,1.40
2023-05-03T02:31:43.761Z,1.42
2023-05-03T02:32:46.864Z,1.45
2023-05-03T02:33:49.695Z,1.41
2023-05-03T02:34:52.780Z,1.24
2023-05-03T02:35:55.643Z,1.22
2023-05-03T02:36:58.321Z,1.58
2023-05-03T02:38:01.299Z,1.62
2023-05-03T02:39:04.067Z,1.65
2023-05-03T02:40:06.939Z,1.91
2023-05-03T02:41:09.715Z,2.11
2023-05-03T02:42:12.287Z,1.36
2023-05-03T02:43:15.060Z,1.90
2023-05-03T02:44:17.731Z,2.57
2023-05-03T02:45:20.601Z,1.51
2023-05-03T02:46:23.511Z,1.36
2023-05-03T02:47:26.292Z,1.58
2023-05-03T02:48:29.020Z,1.72
2023-05-03T02:49:31.990Z,1.38
2023-05-03T02:50:35.483Z,1.48
2023-05-03T02:51:38.364Z,1.48
2023-05-03T02:52:41.446Z,1.47
2023-05-03T02:53:44.412Z,1.95
2023-05-03T02:54:47.183Z,1.28
2023-05-03T02:55:50.589Z,1.23
2023-05-03T02:56:53.462Z,1.36
2023-05-03T02:57:56.329Z,1.45
2023-05-03T02:58:59.305Z,1.65
2023-05-03T03:00:02.404Z,1.47
2023-05-03T03:01:05.764Z,1.41
2023-05-03T03:02:08.911Z,1.51
2023-05-03T03:03:12.036Z,1.22
2023-05-03T03:04:15.423Z,1.26
2023-05-03T03:05:18.489Z,1.51
2023-05-03T03:06:21.900Z,1.55
2023-05-03T03:07:24.853Z,1.46
2023-05-03T03:08:27.830Z,1.33
2023-05-03T03:09:30.929Z,1.32
2023-05-03T03:10:33.791Z,1.40
2023-05-03T03:11:37.106Z,2.19
2023-05-03T03:12:39.949Z,1.38
2023-05-03T03:13:43.142Z,1.55
2023-05-03T03:14:46.008Z,1.41
2023-05-03T03:15:49.205Z,1.20
2023-05-03T03:16:52.382Z,1.08
2023-05-03T03:17:55.409Z,1.45
2023-05-03T03:18:58.233Z,1.20
2023-05-03T03:20:01.531Z,1.32
2023-05-03T03:21:04.600Z,1.77
2023-05-03T03:22:07.249Z,1.72
2023-05-03T03:23:10.223Z,1.47
2023-05-03T03:24:13.631Z,1.61
2023-05-03T03:25:16.505Z,1.09
2023-05-03T03:26:19.467Z,1.24
2023-05-03T03:27:22.453Z,1.38
2023-05-03T03:28:25.625Z,1.59
2023-05-03T03:29:28.395Z,1.85
2023-05-03T03:30:32.299Z,1.59
2023-05-03T03:31:35.310Z,1.20
2023-05-03T03:32:38.631Z,1.54
2023-05-03T03:33:41.442Z,1.40
2023-05-03T03:34:44.033Z,1.46
2023-05-03T03:35:46.790Z,1.12
2023-05-03T03:36:49.439Z,1.25
2023-05-03T03:37:52.317Z,1.41
2023-05-03T03:38:55.099Z,1.40
2023-05-03T03:39:57.970Z,1.10
2023-05-03T03:41:00.636Z,1.21
2023-05-03T03:42:03.420Z,0.86
2023-05-03T03:43:06.381Z,1.08
2023-05-03T03:44:09.258Z,1.35
2023-05-03T03:45:12.138Z,1.72
2023-05-03T03:46:14.931Z,1.33
2023-05-03T03:47:17.752Z,1.12
2023-05-03T03:48:21.127Z,1.27
2023-05-03T03:49:23.943Z,1.48
2023-05-03T03:50:26.734Z,1.15
2023-05-03T03:51:29.407Z,1.21
2023-05-03T03:52:31.946Z,1.24
2023-05-03T03:53:34.839Z,1.67
2023-05-03T03:54:37.396Z,1.52
2023-05-03T03:55:39.954Z,1.36
2023-05-03T03:56:42.848Z,1.69
2023-05-03T03:57:45.607Z,1.34
2023-05-03T03:58:48.388Z,1.16
2023-05-03T03:59:51.053Z,1.07
2023-05-03T04:00:53.941Z,1.62
2023-05-03T04:01:56.820Z,2.61
2023-05-03T04:02:59.836Z,1.48
2023-05-03T04:04:03.202Z,1.29
2023-05-03T04:05:06.248Z,1.08
2023-05-03T04:06:09.156Z,1.38
2023-05-03T04:07:12.213Z,1.22
2023-05-03T04:08:15.169Z,1.35
2023-05-03T04:09:18.181Z,1.45
2023-05-03T04:10:21.133Z,1.64
2023-05-03T04:11:24.114Z,1.39
2023-05-03T04:12:26.879Z,1.25
2023-05-03T04:13:30.081Z,0.94
2023-05-03T04:14:33.246Z,1.25
2023-05-03T04:15:36.220Z,1.38
2023-05-03T04:16:39.260Z,1.15
2023-05-03T04:17:42.103Z,1.50
2023-05-03T04:18:45.050Z,2.03
2023-05-03T04:19:48.541Z,1.03
2023-05-03T04:20:51.405Z,0.96
2023-05-03T04:21:54.500Z,1.39
2023-05-03T04:22:57.057Z,1.25
2023-05-03T04:24:02.907Z,1.13
2023-05-03T04:25:05.876Z,1.03
2023-05-03T04:26:14.521Z,1.22
2023-05-03T04:27:14.298Z,1.10
2023-05-03T04:28:17.277Z,1.20
2023-05-03T04:29:20.163Z,1.45
2023-05-03T04:30:22.810Z,3.06
2023-05-03T04:31:25.867Z,1.34
2023-05-03T04:32:28.686Z,2.42
2023-05-03T04:33:31.350Z,0.91
2023-05-03T04:34:34.002Z,1.22
2023-05-03T04:35:36.777Z,2.07
2023-05-03T04:36:39.437Z,1.46
2023-05-03T04:37:45.722Z,1.22
2023-05-03T04:38:48.479Z,1.46
2023-05-03T04:39:51.242Z,1.28
2023-05-03T04:40:54.226Z,1.22
2023-05-03T04:41:57.094Z,1.32
2023-05-03T04:43:00.201Z,1.13
2023-05-03T04:44:03.062Z,1.14
2023-05-03T04:45:06.055Z,1.21
2023-05-03T04:46:09.119Z,1.07
2023-05-03T04:47:12.295Z,1.06
2023-05-03T04:48:15.213Z,0.98
2023-05-03T04:49:17.969Z,1.31
2023-05-03T04:50:21.049Z,1.10
2023-05-03T04:51:24.010Z,0.95
2023-05-03T04:52:26.683Z,0.98
2023-05-03T04:53:29.537Z,1.12
2023-05-03T04:54:32.409Z,1.06
2023-05-03T04:55:35.298Z,0.95
2023-05-03T04:56:38.559Z,0.78
2023-05-03T04:57:41.348Z,0.92
2023-05-03T04:58:44.341Z,1.21
2023-05-03T04:59:47.289Z,1.19
2023-05-03T05:00:50.197Z,1.62
2023-05-03T05:01:53.469Z,1.22
2023-05-03T05:02:56.822Z,1.18
2023-05-03T05:04:00.035Z,1.14
2023-05-03T05:05:02.892Z,1.19
2023-05-03T05:06:06.108Z,1.07
2023-05-03T05:07:09.295Z,1.24
2023-05-03T05:08:12.341Z,1.53
2023-05-03T05:09:15.312Z,1.25
2023-05-03T05:10:18.310Z,1.57
2023-05-03T05:11:21.273Z,1.15
2023-05-03T05:12:24.457Z,1.11
2023-05-03T05:13:27.743Z,1.11
2023-05-03T05:14:30.623Z,1.34
2023-05-03T05:15:33.483Z,1.20
2023-05-03T05:16:36.490Z,1.15
2023-05-03T05:17:39.994Z,1.02
2023-05-03T05:18:43.252Z,1.69
2023-05-03T05:19:46.201Z,1.31
2023-05-03T05:20:49.412Z,1.78
2023-05-03T05:21:52.470Z,1.73
2023-05-03T05:22:55.558Z,0.85
2023-05-03T05:23:58.522Z,1.10
2023-05-03T05:25:01.404Z,1.02
2023-05-03T05:26:04.078Z,1.08
2023-05-03T05:27:06.746Z,1.13
2023-05-03T05:28:09.510Z,1.42
2023-05-03T05:29:12.393Z,1.48
2023-05-03T05:30:15.066Z,1.66
2023-05-03T05:31:17.970Z,1.41
2023-05-03T05:32:20.703Z,1.91
2023-05-03T05:33:23.692Z,1.59
2023-05-03T05:34:26.453Z,1.53
2023-05-03T05:35:29.246Z,1.81
2023-05-03T05:36:31.910Z,1.22
2023-05-03T05:37:34.571Z,1.16
2023-05-03T05:38:37.454Z,1.04
2023-05-03T05:39:40.312Z,0.95
2023-05-03T05:40:43.107Z,1.21
2023-05-03T05:41:45.968Z,1.23
2023-05-03T05:42:48.640Z,1.36
2023-05-03T05:43:51.909Z,1.18
2023-05-03T05:44:54.587Z,1.23
2023-05-03T05:45:57.605Z,1.32
2023-05-03T05:47:00.478Z,1.26
2023-05-03T05:48:03.996Z,1.24
2023-05-03T05:49:07.016Z,1.18
2023-05-03T05:50:17.733Z,1.40
2023-05-03T05:51:14.657Z,1.58
2023-05-03T05:52:17.471Z,0.97
2023-05-03T05:53:20.248Z,1.28
2023-05-03T05:54:23.127Z,1.26
2023-05-03T05:55:26.096Z,1.74
2023-05-03T05:56:28.979Z,0.99
2023-05-03T05:57:31.746Z,0.93
2023-05-03T05:58:34.619Z,1.54
2023-05-03T05:59:37.908Z,1.61
2023-05-03T06:00:40.879Z,1.30
2023-05-03T06:01:43.484Z,1.47
2023-05-03T06:02:46.566Z,1.15
2023-05-03T06:03:49.824Z,1.07
2023-05-03T06:04:52.744Z,1.68
2023-05-03T06:05:55.464Z,1.45
2023-05-03T06:07:01.615Z,1.27
2023-05-03T06:08:04.495Z,1.29
2023-05-03T06:09:22.987Z,1.17
2023-05-03T06:10:11.992Z,1.61
2023-05-03T06:11:14.751Z,1.60
2023-05-03T06:12:17.627Z,1.46
2023-05-03T06:13:20.699Z,1.45
2023-05-03T06:14:23.781Z,2.08
2023-05-03T06:15:27.281Z,1.86
2023-05-03T06:16:33.270Z,1.36
2023-05-03T06:17:36.268Z,1.25
2023-05-03T06:18:39.481Z,1.21
2023-05-03T06:19:44.414Z,1.33
2023-05-03T06:20:46.983Z,1.98
2023-05-03T06:21:49.742Z,1.34
2023-05-03T06:22:52.430Z,1.54
2023-05-03T06:23:55.093Z,1.79
2023-05-03T06:24:57.956Z,1.24
2023-05-03T06:26:00.631Z,1.03
2023-05-03T06:27:03.406Z,1.01
2023-05-03T06:28:06.170Z,1.00
2023-05-03T06:29:08.954Z,1.18
2023-05-03T06:30:11.621Z,1.32
2023-05-03T06:31:14.716Z,1.45
2023-05-03T06:32:17.832Z,1.47
2023-05-03T06:33:20.643Z,1.44
2023-05-03T06:34:23.726Z,1.00
2023-05-03T06:35:31.773Z,1.75
2023-05-03T06:36:34.603Z,1.23
2023-05-03T06:37:37.591Z,1.22
2023-05-03T06:38:40.338Z,1.24
2023-05-03T06:39:43.331Z,1.27
2023-05-03T06:40:46.293Z,1.78
2023-05-03T06:41:49.597Z,1.28
2023-05-03T06:42:52.567Z,1.37
2023-05-03T06:43:55.457Z,1.48
2023-05-03T06:44:58.213Z,1.67
2023-05-03T06:46:01.318Z,1.32
2023-05-03T06:47:04.397Z,1.38
2023-05-03T06:48:07.568Z,1.79
2023-05-03T06:49:10.622Z,1.16
2023-05-03T06:50:13.835Z,1.19
2023-05-03T06:51:20.298Z,1.25
2023-05-03T06:52:23.912Z,1.06
2023-05-03T06:53:26.742Z,1.31
2023-05-03T06:54:29.721Z,1.54
2023-05-03T06:55:32.593Z,0.96
2023-05-03T06:56:35.470Z,1.22
2023-05-03T06:57:38.333Z,1.60
2023-05-03T06:58:41.108Z,1.22
2023-05-03T06:59:44.085Z,1.23
2023-05-03T07:00:47.076Z,1.44
2023-05-03T07:01:49.976Z,1.25
2023-05-03T07:02:52.894Z,1.21
2023-05-03T07:03:57.723Z,1.07
2023-05-03T07:05:00.526Z,1.07
2023-05-03T07:06:03.425Z,1.23
2023-05-03T07:07:07.473Z,1.01
2023-05-03T07:08:10.352Z,1.06
2023-05-03T07:09:13.024Z,1.05
2023-05-03T07:10:15.894Z,1.09
2023-05-03T07:11:19.093Z,1.21
2023-05-03T07:12:21.755Z,1.18
2023-05-03T07:13:24.731Z,1.49
2023-05-03T07:14:27.629Z,1.25
2023-05-03T07:15:30.582Z,1.15
2023-05-03T07:16:33.497Z,1.34
2023-05-03T07:17:36.150Z,1.08
2023-05-03T07:18:39.405Z,1.47
2023-05-03T07:19:42.199Z,1.46
2023-05-03T07:20:45.055Z,1.41
2023-05-03T07:21:47.732Z,1.42
2023-05-03T07:22:50.292Z,1.31
2023-05-03T07:23:53.178Z,0.99
2023-05-03T07:24:56.309Z,1.20
2023-05-03T07:25:59.632Z,1.05
2023-05-03T07:27:02.523Z,1.29
2023-05-03T07:28:05.696Z,1.12
2023-05-03T07:29:08.873Z,1.02
2023-05-03T07:30:11.960Z,0.83
2023-05-03T07:31:14.925Z,1.12
2023-05-03T07:32:18.355Z,1.23
2023-05-03T07:33:21.525Z,1.63
2023-05-03T07:34:24.583Z,1.37
2023-05-03T07:35:27.449Z,1.62
2023-05-03T07:36:30.441Z,1.61
2023-05-03T07:37:33.406Z,1.28
2023-05-03T07:38:36.294Z,1.21
2023-05-03T07:39:39.252Z,1.21
2023-05-03T07:40:42.435Z,1.32
2023-05-03T07:41:45.215Z,1.19
2023-05-03T07:42:47.967Z,1.30
2023-05-03T07:43:51.057Z,1.38
2023-05-03T07:44:57.713Z,1.26
2023-05-03T07:46:00.430Z,1.25
2023-05-03T07:47:03.368Z,1.26
2023-05-03T07:48:06.167Z,1.12
2023-05-03T07:49:09.436Z,1.26
2023-05-03T07:50:12.392Z,1.79
2023-05-03T07:51:15.038Z,1.38
2023-05-03T07:52:17.743Z,1.37
2023-05-03T07:53:20.413Z,1.05
2023-05-03T07:54:23.394Z,1.15
2023-05-03T07:55:26.568Z,1.06
2023-05-03T07:56:29.245Z,1.32
2023-05-03T07:57:32.227Z,1.18
2023-05-03T07:58:40.726Z,1.06
2023-05-03T07:59:40.141Z,1.25
2023-05-03T08:00:43.401Z,1.21
2023-05-03T08:01:46.975Z,1.36
2023-05-03T08:02:50.135Z,1.33
2023-05-03T08:03:53.435Z,1.22
2023-05-03T08:04:56.565Z,1.24
2023-05-03T08:05:59.720Z,1.10
2023-05-03T08:07:02.629Z,1.02
2023-05-03T08:08:05.605Z,1.10
2023-05-03T08:09:09.473Z,1.22
2023-05-03T08:10:12.146Z,1.19
2023-05-03T08:11:14.931Z,1.34
2023-05-03T08:12:17.593Z,1.02
2023-05-03T08:13:20.357Z,1.06
2023-05-03T08:14:23.137Z,1.31
2023-05-03T08:15:25.911Z,1.32
2023-05-03T08:16:29.044Z,1.44
2023-05-03T08:17:31.708Z,1.44
2023-05-03T08:18:34.934Z,1.33
2023-05-03T08:19:37.827Z,1.21
2023-05-03T08:20:41.010Z,1.26
2023-05-03T08:21:45.204Z,1.22
2023-05-03T08:22:48.174Z,1.24
2023-05-03T08:23:50.961Z,1.40
2023-05-03T08:24:53.826Z,1.21
2023-05-03T08:25:57.012Z,1.35
2023-05-03T08:27:00.240Z,1.45
2023-05-03T08:28:03.387Z,1.37
2023-05-03T08:29:06.359Z,1.48
2023-05-03T08:30:09.434Z,1.45
2023-05-03T08:31:12.458Z,1.38
2023-05-03T08:32:15.593Z,1.49
2023-05-03T08:33:18.469Z,1.41
2023-05-03T08:34:21.357Z,1.42
2023-05-03T08:35:24.321Z,1.65
2023-05-03T08:36:27.211Z,1.65
2023-05-03T08:37:30.176Z,1.64
2023-05-03T08:38:32.826Z,1.36
2023-05-03T08:39:36.020Z,1.34
2023-05-03T08:40:38.887Z,1.38
2023-05-03T08:41:45.442Z,1.37
2023-05-03T08:42:48.340Z,1.34
2023-05-03T08:43:53.436Z,1.40
2023-05-03T08:44:56.232Z,1.53
2023-05-03T08:45:59.217Z,1.40
2023-05-03T08:47:02.170Z,1.51
2023-05-03T08:48:05.391Z,1.62
2023-05-03T08:49:08.337Z,1.92
2023-05-03T08:50:11.212Z,2.12
2023-05-03T08:51:15.313Z,1.70
2023-05-03T08:52:18.490Z,1.76
2023-05-03T08:53:21.677Z,1.47
2023-05-03T08:54:27.485Z,1.50
2023-05-03T08:55:30.187Z,1.72
2023-05-03T08:56:33.076Z,1.80
2023-05-03T08:57:35.934Z,1.72
2023-05-03T08:58:39.031Z,1.63
2023-05-03T08:59:41.886Z,2.02
2023-05-03T09:00:45.491Z,1.73
2023-05-03T09:01:49.009Z,1.71
2023-05-03T09:02:52.056Z,2.28
2023-05-03T09:03:55.510Z,2.02
2023-05-03T09:04:58.315Z,1.94
2023-05-03T09:06:01.132Z,2.12
2023-05-03T09:07:07.735Z,1.92
2023-05-03T09:08:10.624Z,2.00
2023-05-03T09:09:13.599Z,2.02
2023-05-03T09:10:16.373Z,2.17
2023-05-03T09:11:19.145Z,2.07
2023-05-03T09:12:22.024Z,2.20
2023-05-03T09:13:24.892Z,1.83
2023-05-03T09:14:27.664Z,1.75
2023-05-03T09:15:30.378Z,1.55
2023-05-03T09:16:33.032Z,1.46
2023-05-03T09:17:39.288Z,1.44
2023-05-03T09:18:41.928Z,1.44
2023-05-03T09:19:44.607Z,1.49
2023-05-03T09:20:47.273Z,1.62
2023-05-03T09:21:51.074Z,1.65
2023-05-03T09:22:53.732Z,1.75
2023-05-03T09:23:56.818Z,1.55
2023-05-03T09:24:59.808Z,1.63
2023-05-03T09:26:02.987Z,1.33
2023-05-03T09:27:05.950Z,1.59
2023-05-03T09:28:08.731Z,1.62
2023-05-03T09:29:11.705Z,1.59
2023-05-03T09:30:14.675Z,1.68
2023-05-03T09:31:17.551Z,1.52
2023-05-03T09:32:20.545Z,1.42
2023-05-03T09:33:23.503Z,1.85
2023-05-03T09:34:26.273Z,1.55
2023-05-03T09:35:29.382Z,1.63
2023-05-03T09:36:32.230Z,1.75
2023-05-03T09:37:46.271Z,1.72
2023-05-03T09:38:49.246Z,1.75
2023-05-03T09:39:52.017Z,1.58
2023-05-03T09:40:55.210Z,1.57
2023-05-03T09:41:58.384Z,1.72
2023-05-03T09:43:04.991Z,1.56
2023-05-03T09:44:07.814Z,1.77
2023-05-03T09:45:10.808Z,1.48
2023-05-03T09:46:13.804Z,1.35
2023-05-03T09:47:17.687Z,1.36
2023-05-03T09:48:20.747Z,1.46
2023-05-03T09:49:23.721Z,1.39
2023-05-03T09:50:26.599Z,1.11
2023-05-03T09:51:29.990Z,1.24
2023-05-03T09:52:32.756Z,1.44
2023-05-03T09:53:36.968Z,1.45
2023-05-03T09:54:39.868Z,1.44
2023-05-03T09:55:42.927Z,1.41
2023-05-03T09:56:46.112Z,1.24
2023-05-03T09:57:49.071Z,1.30
2023-05-03T09:58:51.961Z,1.25
2023-05-03T09:59:54.832Z,1.42
2023-05-03T10:00:58.155Z,1.28
2023-05-03T10:03:22.102Z,1.43
2023-05-03T10:04:25.176Z,1.64
2023-05-03T10:05:28.279Z,1.58
2023-05-03T10:06:31.079Z,1.45
2023-05-03T10:07:34.127Z,1.77
2023-05-03T10:08:36.971Z,1.70
2023-05-03T10:09:39.662Z,1.53
2023-05-03T10:10:48.116Z,1.57
2023-05-03T10:11:51.026Z,1.56
2023-05-03T10:12:59.510Z,1.48
2023-05-03T10:14:02.217Z,1.39
2023-05-03T10:15:05.138Z,1.48
2023-05-03T10:16:08.089Z,1.38
2023-05-03T10:17:10.928Z,1.28
2023-05-03T10:18:14.084Z,1.55
2023-05-03T10:19:16.907Z,1.35
2023-05-03T10:20:19.462Z,1.52
2023-05-03T10:21:22.334Z,1.52
2023-05-03T10:22:24.892Z,1.64
2023-05-03T10:23:28.301Z,1.65
2023-05-03T10:24:31.050Z,1.72
2023-05-03T10:25:34.447Z,1.63
2023-05-03T10:26:38.346Z,1.85
2023-05-03T10:27:41.224Z,1.55
2023-05-03T10:28:44.287Z,1.71
2023-05-03T10:29:47.265Z,1.79
2023-05-03T10:30:51.944Z,1.72
2023-05-03T10:31:54.816Z,1.75
2023-05-03T10:32:59.065Z,1.74
2023-05-03T10:34:01.940Z,1.94
2023-05-03T10:35:06.625Z,1.55
2023-05-03T10:36:09.631Z,1.77
2023-05-03T10:37:12.202Z,1.86
2023-05-03T10:38:14.789Z,1.86
2023-05-03T10:39:18.155Z,1.84
2023-05-03T10:40:21.125Z,1.94
2023-05-03T10:41:23.812Z,1.75
2023-05-03T10:42:26.369Z,1.69
2023-05-03T10:43:28.828Z,1.82
2023-05-03T10:44:31.418Z,1.84
2023-05-03T10:45:34.169Z,2.19
2023-05-03T10:46:39.439Z,2.09
2023-05-03T10:47:42.847Z,2.05
2023-05-03T10:48:45.665Z,2.18
2023-05-03T10:49:48.655Z,2.20
2023-05-03T10:50:51.530Z,2.11
2023-05-03T10:51:54.492Z,1.91
2023-05-03T10:52:57.466Z,2.18
2023-05-03T10:54:00.265Z,2.18
2023-05-03T10:55:03.649Z,2.44
2023-05-03T10:56:06.909Z,2.00
2023-05-03T10:57:09.982Z,2.29
2023-05-03T10:58:13.182Z,2.35
2023-05-03T10:59:16.245Z,2.29
2023-05-03T11:00:19.432Z,2.32
2023-05-03T11:01:22.556Z,2.71
2023-05-03T11:02:25.515Z,2.45
2023-05-03T11:03:28.669Z,2.27
2023-05-03T11:04:31.940Z,2.30
2023-05-03T11:05:34.637Z,2.62
2023-05-03T11:06:37.388Z,2.94
2023-05-03T11:07:39.972Z,2.94
2023-05-03T11:08:42.747Z,3.02
2023-05-03T11:09:51.449Z,3.12
2023-05-03T11:10:54.113Z,2.74
2023-05-03T11:11:56.686Z,2.68
2023-05-03T11:12:59.259Z,2.87
2023-05-03T11:14:01.953Z,2.94
2023-05-03T11:15:04.886Z,2.67
2023-05-03T11:16:07.713Z,2.91
2023-05-03T11:17:10.248Z,3.15
2023-05-03T11:18:12.818Z,2.90
2023-05-03T11:19:21.523Z,2.56
2023-05-03T11:20:24.293Z,3.21
2023-05-03T11:21:27.699Z,3.25
2023-05-03T11:22:30.556Z,2.99
2023-05-03T11:23:33.321Z,3.17
2023-05-03T11:24:36.196Z,3.32
2023-05-03T11:25:39.083Z,3.02
2023-05-03T11:26:42.151Z,2.98
2023-05-03T11:27:47.915Z,3.35
2023-05-03T11:28:50.876Z,3.06
2023-05-03T11:29:53.846Z,3.22
2023-05-03T11:30:56.828Z,3.22
2023-05-03T11:32:00.030Z,3.00
2023-05-03T11:33:03.017Z,2.89
2023-05-03T11:34:07.556Z,3.05
2023-05-03T11:35:10.573Z,3.28
2023-05-03T11:36:13.242Z,3.27
2023-05-03T11:37:16.324Z,3.22
2023-05-03T11:38:19.401Z,3.33
2023-05-03T11:39:24.407Z,2.99
2023-05-03T11:40:27.886Z,3.33
2023-05-03T11:41:33.262Z,3.43
2023-05-03T11:42:36.804Z,3.47
2023-05-03T11:43:39.610Z,3.19
2023-05-03T11:44:42.381Z,3.25
2023-05-03T11:45:45.182Z,3.39
2023-05-03T11:46:48.494Z,3.39
2023-05-03T11:47:51.667Z,3.68
2023-05-03T11:48:54.410Z,3.54
2023-05-03T11:49:56.957Z,3.51
2023-05-03T11:50:59.932Z,3.30
2023-05-03T11:52:02.706Z,3.31
2023-05-03T11:53:05.898Z,3.24
2023-05-03T11:54:21.030Z,3.36
2023-05-03T11:55:13.186Z,3.49
2023-05-03T11:56:16.059Z,3.91
2023-05-03T11:57:18.929Z,3.80
2023-05-03T11:58:22.320Z,3.73
2023-05-03T11:59:25.193Z,3.59
2023-05-03T12:00:29.782Z,3.75
2023-05-03T12:01:32.896Z,3.91
2023-05-03T12:02:35.934Z,4.06
2023-05-03T12:03:39.119Z,3.65
2023-05-03T12:04:44.278Z,3.53
2023-05-03T12:05:49.462Z,3.94
2023-05-03T12:06:54.210Z,4.12
2023-05-03T12:07:58.220Z,3.64
2023-05-03T12:09:01.834Z,4.01
2023-05-03T12:10:15.739Z,3.98
2023-05-03T12:11:10.026Z,3.72
2023-05-03T12:12:14.764Z,4.23
2023-05-03T12:13:19.120Z,4.30
2023-05-03T12:14:22.302Z,3.86
2023-05-03T12:15:26.442Z,3.79
2023-05-03T12:16:29.479Z,3.92
2023-05-03T12:17:32.359Z,3.92
2023-05-03T12:18:35.668Z,4.30
2023-05-03T12:19:39.654Z,3.87
2023-05-03T12:21:29.540Z,3.68
2023-05-03T12:22:57.271Z,3.97
2023-05-03T12:23:57.763Z,4.15
2023-05-03T12:25:03.652Z,4.67
2023-05-03T12:26:05.512Z,5.95
2023-05-03T12:27:08.890Z,4.17
2023-05-03T12:29:15.718Z,3.91
2023-05-03T12:30:19.109Z,4.02
2023-05-03T12:31:22.901Z,4.09
2023-05-03T12:32:26.142Z,4.29
2023-05-03T12:33:29.190Z,4.32
2023-05-03T12:34:35.741Z,5.02
2023-05-03T12:35:39.229Z,5.61
2023-05-03T12:36:43.444Z,5.81
2023-05-03T12:37:48.970Z,7.36
2023-05-03T12:38:50.651Z,5.77
2023-05-03T12:40:58.165Z,5.01
2023-05-03T12:43:05.187Z,5.04
2023-05-03T12:44:10.636Z,5.28
2023-05-03T12:45:12.528Z,6.38
2023-05-03T12:46:33.260Z,7.05
2023-05-03T12:47:28.002Z,8.55
2023-05-03T12:48:24.358Z,5.93
2023-05-03T12:49:27.352Z,5.08
2023-05-03T12:50:31.940Z,6.87
2023-05-03T12:51:35.133Z,8.17
2023-05-03T12:52:38.922Z,4.76
2023-05-03T12:53:45.381Z,4.47
2023-05-03T12:54:48.923Z,4.71
2023-05-03T12:55:51.683Z,5.56
2023-05-03T12:56:55.479Z,5.29
2023-05-03T12:58:26.682Z,4.11
2023-05-03T12:59:36.208Z,4.22
2023-05-03T13:00:13.571Z,3.71
2023-05-03T13:03:20.424Z,4.43
2023-05-03T13:04:55.813Z,5.19
2023-05-03T13:05:35.268Z,5.41
2023-05-03T13:06:35.383Z,6.41
2023-05-03T13:07:42.405Z,8.90
2023-05-03T13:08:48.922Z,6.77
2023-05-03T13:10:49.605Z,7.39
2023-05-03T13:11:52.830Z,5.98
2023-05-03T13:12:55.652Z,7.88
2023-05-03T13:13:58.423Z,4.95
2023-05-03T13:15:01.392Z,5.00
2023-05-03T13:16:04.078Z,4.35
2023-05-03T13:17:06.753Z,4.24
2023-05-03T13:18:17.803Z,5.85
2023-05-03T13:19:20.682Z,4.53
2023-05-03T13:20:23.450Z,4.69
2023-05-03T13:21:26.318Z,5.08
2023-05-03T13:22:29.311Z,5.60
2023-05-03T13:23:32.273Z,4.71
2023-05-03T13:24:35.557Z,4.23
2023-05-03T13:25:38.432Z,4.20
2023-05-03T13:26:41.325Z,5.62
2023-05-03T13:27:43.997Z,5.02
2023-05-03T13:28:47.157Z,6.55
2023-05-03T13:29:50.033Z,4.26
2023-05-03T13:30:53.017Z,6.04
2023-05-03T13:31:55.931Z,3.85
2023-05-03T13:32:59.014Z,3.70
2023-05-03T13:34:01.960Z,4.78
2023-05-03T13:35:05.036Z,6.30
2023-05-03T13:36:08.101Z,3.86
2023-05-03T13:37:13.028Z,4.01
2023-05-03T13:38:15.811Z,4.20
2023-05-03T13:39:19.198Z,4.69
2023-05-03T13:40:21.949Z,3.68
2023-05-03T13:41:24.832Z,3.53
2023-05-03T13:42:27.713Z,3.45
2023-05-03T13:43:30.574Z,3.44
2023-05-03T13:44:33.459Z,3.32
2023-05-03T13:45:36.234Z,5.74
2023-05-03T13:46:39.142Z,6.48
2023-05-03T13:48:04.988Z,4.02
2023-05-03T13:48:46.423Z,3.81
2023-05-03T13:49:49.467Z,5.38
2023-05-03T13:50:52.339Z,4.82
2023-05-03T13:51:55.211Z,4.32
2023-05-03T13:52:58.086Z,7.00
2023-05-03T13:54:00.981Z,5.98
2023-05-03T13:55:04.048Z,4.92
2023-05-03T13:56:06.914Z,4.93
2023-05-03T13:57:09.793Z,6.45
2023-05-03T13:58:12.254Z,6.81
2023-05-03T13:59:15.176Z,7.12
2023-05-03T14:00:18.036Z,5.41
2023-05-03T14:01:20.654Z,6.10
2023-05-03T14:02:23.278Z,5.82
2023-05-03T14:03:26.080Z,4.05
2023-05-03T14:04:28.958Z,4.87
2023-05-03T14:05:31.659Z,6.15
2023-05-03T14:06:34.468Z,4.85
2023-05-03T14:07:37.201Z,4.73
2023-05-03T14:08:40.076Z,4.66
2023-05-03T14:09:43.113Z,3.31